createdAt,value
2022-08-14T00:01:36.106Z,99143.97
2022-08-14T00:04:03.224Z,99140.44
2022-08-14T00:06:50.970Z,99141.47
2022-08-14T00:09:17.692Z,99130.97
2022-08-14T00:11:44.331Z,99130.13
2022-08-14T00:14:17.092Z,99128.41
2022-08-14T00:16:44.974Z,99118.94
2022-08-14T00:19:19.139Z,99117.28
2022-08-14T00:21:47.892Z,99120.75
2022-08-14T00:24:23.165Z,99124.16
2022-08-14T00:27:02.060Z,99115.56
2022-08-14T00:29:33.247Z,99121.59
2022-08-14T00:32:51.668Z,99127.78
2022-08-14T00:34:54.406Z,99126.16
2022-08-14T00:37:23.388Z,99126.19
2022-08-14T00:39:51.100Z,99115.00
2022-08-14T00:42:55.348Z,99124.53
2022-08-14T00:45:10.000Z,99122.91
2022-08-14T00:47:44.796Z,99117.72
2022-08-14T00:50:17.815Z,99115.16
2022-08-14T00:52:51.042Z,99120.44
2022-08-14T00:55:19.892Z,99119.63
2022-08-14T00:58:07.464Z,99114.66
2022-08-14T01:00:43.065Z,99106.75
2022-08-14T01:03:19.246Z,99113.75
2022-08-14T01:05:51.718Z,99117.25
2022-08-14T01:08:57.857Z,99118.22
2022-08-14T01:11:08.383Z,99115.75
2022-08-14T01:13:42.238Z,99118.34
2022-08-14T01:16:14.814Z,99121.91
2022-08-14T01:19:02.403Z,99122.84
2022-08-14T01:21:38.643Z,99122.97
2022-08-14T01:24:28.890Z,99124.78
2022-08-14T01:27:00.349Z,99116.16
2022-08-14T01:29:58.462Z,99123.19
2022-08-14T01:32:23.316Z,99119.78
2022-08-14T01:35:19.977Z,99123.28
2022-08-14T01:37:54.590Z,99121.59
2022-08-14T01:40:25.542Z,99128.50
2022-08-14T01:43:00.119Z,99122.44
2022-08-14T01:45:31.324Z,99121.59
2022-08-14T01:48:07.350Z,99110.50
2022-08-14T01:50:41.939Z,99121.69
2022-08-14T01:53:09.638Z,99117.38
2022-08-14T01:55:38.592Z,99119.06
2022-08-14T01:58:20.226Z,99112.16
2022-08-14T02:00:55.000Z,99122.66
2022-08-14T02:03:31.278Z,99111.34
2022-08-14T02:06:04.074Z,99113.16
2022-08-14T02:08:53.347Z,99112.50
2022-08-14T02:11:23.904Z,99114.28
2022-08-14T02:14:07.387Z,99120.50
2022-08-14T02:16:54.209Z,99114.50
2022-08-14T02:19:24.199Z,99114.53
2022-08-14T02:21:54.567Z,99113.78
2022-08-14T02:24:38.880Z,99106.03
2022-08-14T02:28:25.514Z,99094.16
2022-08-14T02:30:00.809Z,99108.97
2022-08-14T02:32:36.756Z,99107.28
2022-08-14T02:35:17.962Z,99114.28
2022-08-14T02:37:49.742Z,99117.78
2022-08-14T02:40:32.495Z,99122.16
2022-08-14T02:43:03.618Z,99117.88
2022-08-14T02:45:37.885Z,99120.50
2022-08-14T02:49:04.066Z,99123.09
2022-08-14T02:51:00.533Z,99128.31
2022-08-14T02:53:29.426Z,99122.25
2022-08-14T02:55:56.714Z,99122.31
2022-08-14T02:58:31.225Z,99126.63
2022-08-14T03:00:59.645Z,99124.00
2022-08-14T03:03:27.976Z,99121.41
2022-08-14T03:05:58.625Z,99126.63
2022-08-14T03:08:33.249Z,99129.16
2022-08-14T03:11:07.748Z,99122.25
2022-08-14T03:13:41.330Z,99120.50
2022-08-14T03:16:20.105Z,99128.31
2022-08-14T03:18:59.877Z,99126.56
2022-08-14T03:21:27.283Z,99122.19
2022-08-14T03:24:16.346Z,99121.34
2022-08-14T03:26:49.848Z,99123.09
2022-08-14T03:29:24.683Z,99120.50
2022-08-14T03:31:53.347Z,99118.84
2022-08-14T03:34:24.566Z,99126.63
2022-08-14T03:37:38.050Z,99124.00
2022-08-14T03:39:59.226Z,99124.91
2022-08-14T03:42:35.708Z,99126.63
2022-08-14T03:45:27.428Z,99134.38
2022-08-14T03:47:58.408Z,99129.16
2022-08-14T03:50:27.708Z,99122.31
2022-08-14T03:53:02.766Z,99126.53
2022-08-14T03:55:30.490Z,99128.22
2022-08-14T03:57:57.986Z,99125.59
2022-08-14T04:00:42.783Z,99133.25
2022-08-14T04:03:17.941Z,99127.91
2022-08-14T04:05:49.058Z,99126.03
2022-08-14T04:08:29.810Z,99120.75
2022-08-14T04:11:01.605Z,99115.38
2022-08-14T04:13:31.778Z,99117.09
2022-08-14T04:16:06.857Z,99110.81
2022-08-14T04:18:45.861Z,99114.09
2022-08-14T04:21:13.417Z,99104.53
2022-08-14T04:23:42.658Z,99106.25
2022-08-14T04:26:14.797Z,99107.03
2022-08-14T04:29:07.466Z,99101.66
2022-08-14T04:32:58.632Z,99099.00
2022-08-14T04:34:24.028Z,99109.28
2022-08-14T04:37:13.545Z,99101.28
2022-08-14T04:40:08.616Z,99096.00
2022-08-14T04:42:54.312Z,99101.88
2022-08-14T04:45:23.823Z,99099.13
2022-08-14T04:48:10.401Z,99102.59
2022-08-14T04:50:45.479Z,99097.22
2022-08-14T04:53:26.189Z,99104.91
2022-08-14T04:56:01.329Z,99110.00
2022-08-14T04:58:32.560Z,99104.66
2022-08-14T05:01:02.138Z,99111.47
2022-08-14T05:03:31.904Z,99113.19
2022-08-14T05:06:00.696Z,99112.19
2022-08-14T05:08:32.430Z,99109.47
2022-08-14T05:11:15.613Z,99109.31
2022-08-14T05:16:31.732Z,99114.34
2022-08-14T05:19:25.052Z,99111.66
2022-08-14T05:21:56.200Z,99114.97
2022-08-14T05:24:27.727Z,99118.38
2022-08-14T05:26:54.481Z,99118.16
2022-08-14T05:29:21.905Z,99111.94
2022-08-14T05:31:50.543Z,99114.41
2022-08-14T05:34:28.953Z,99116.00
2022-08-14T05:37:02.721Z,99116.78
2022-08-14T05:39:31.637Z,99119.28
2022-08-14T05:41:59.021Z,99120.13
2022-08-14T05:44:30.127Z,99120.00
2022-08-14T05:46:58.597Z,99113.94
2022-08-14T05:49:32.864Z,99110.41
2022-08-14T05:52:03.612Z,99110.41
2022-08-14T05:54:36.373Z,99112.91
2022-08-14T05:57:04.926Z,99115.53
2022-08-14T05:59:38.848Z,99118.00
2022-08-14T06:02:07.107Z,99122.25
2022-08-14T06:04:33.717Z,99116.03
2022-08-14T06:07:00.304Z,99111.66
2022-08-14T06:09:28.618Z,99115.00
2022-08-14T06:12:01.948Z,99114.91
2022-08-14T06:14:28.537Z,99110.34
2022-08-14T06:16:55.223Z,99104.16
2022-08-14T06:19:23.080Z,99101.34
2022-08-14T06:21:58.091Z,99102.00
2022-08-14T06:24:26.120Z,99092.34
2022-08-14T06:26:56.690Z,99097.47
2022-08-14T06:29:33.371Z,99092.13
2022-08-14T06:32:38.087Z,99103.31
2022-08-14T06:35:02.244Z,99103.13
2022-08-14T06:37:47.007Z,99098.53
2022-08-14T06:40:25.722Z,99095.72
2022-08-14T06:42:57.006Z,99098.03
2022-08-14T06:45:27.917Z,99094.25
2022-08-14T06:47:54.646Z,99088.78
2022-08-14T06:50:27.841Z,99097.09
2022-08-14T06:52:56.204Z,99098.47
2022-08-14T06:55:26.546Z,99090.31
2022-08-14T06:57:55.045Z,99096.22
2022-08-14T07:00:31.225Z,99092.47
2022-08-14T07:03:17.040Z,99093.91
2022-08-14T07:05:57.843Z,99097.16
2022-08-14T07:08:31.248Z,99101.97
2022-08-14T07:11:00.987Z,99087.00
2022-08-14T07:13:28.496Z,99093.78
2022-08-14T07:15:58.642Z,99088.41
2022-08-14T07:18:33.715Z,99091.00
2022-08-14T07:21:04.573Z,99092.56
2022-08-14T07:23:32.240Z,99098.59
2022-08-14T07:26:00.407Z,99099.38
2022-08-14T07:28:35.950Z,99100.94
2022-08-14T07:31:11.864Z,99097.25
2022-08-14T07:33:50.197Z,99097.13
2022-08-14T07:36:27.036Z,99099.59
2022-08-14T07:39:03.329Z,99094.06
2022-08-14T07:41:39.170Z,99095.50
2022-08-14T07:44:32.827Z,99097.81
2022-08-14T07:46:58.177Z,99113.97
2022-08-14T07:49:25.554Z,99112.13
2022-08-14T07:51:53.006Z,99117.81
2022-08-14T07:54:23.231Z,99109.72
2022-08-14T07:57:12.367Z,99122.59
2022-08-14T07:59:43.483Z,99123.22
2022-08-14T08:02:18.694Z,99120.50
2022-08-14T08:04:55.384Z,99132.72
2022-08-14T08:07:29.423Z,99129.91
2022-08-14T08:09:59.600Z,99128.00
2022-08-14T08:12:30.799Z,99117.38
2022-08-14T08:15:03.052Z,99131.19
2022-08-14T08:17:34.361Z,99126.63
2022-08-14T08:20:05.595Z,99132.59
2022-08-14T08:22:35.545Z,99123.69
2022-08-14T08:25:05.531Z,99127.81
2022-08-14T08:27:44.727Z,99123.97
2022-08-14T08:30:12.405Z,99126.28
2022-08-14T08:32:41.413Z,99125.06
2022-08-14T08:35:46.434Z,99122.84
2022-08-14T08:39:17.445Z,99129.44
2022-08-14T08:41:09.602Z,99130.72
2022-08-14T08:43:39.072Z,99124.25
2022-08-14T08:46:21.191Z,99123.06
2022-08-14T08:51:33.479Z,99129.47
2022-08-14T08:54:04.464Z,99117.03
2022-08-14T08:56:44.885Z,99122.22
2022-08-14T08:59:27.310Z,99122.13
2022-08-14T09:02:01.442Z,99115.78
2022-08-14T09:04:45.292Z,99103.34
2022-08-14T09:07:26.184Z,99098.75
2022-08-14T09:09:59.090Z,99106.25
2022-08-14T09:12:33.425Z,99105.91
2022-08-14T09:15:12.062Z,99102.88
2022-08-14T09:17:41.588Z,99106.97
2022-08-14T09:20:11.744Z,99107.50
2022-08-14T09:22:47.813Z,99102.00
2022-08-14T09:25:19.504Z,99100.78
2022-08-14T09:27:47.107Z,99096.13
2022-08-14T09:30:32.724Z,99088.06
2022-08-14T09:33:10.804Z,99081.53
2022-08-14T09:35:56.626Z,99077.81
2022-08-14T09:38:47.601Z,99087.22
2022-08-14T09:41:23.450Z,99090.53
2022-08-14T09:44:04.579Z,99082.38
2022-08-14T09:46:34.338Z,99078.63
2022-08-14T09:49:01.650Z,99072.22
2022-08-14T09:51:32.690Z,99075.34
2022-08-14T09:54:22.721Z,99068.63
2022-08-14T09:56:51.552Z,99066.94
2022-08-14T09:59:27.991Z,99065.50
2022-08-14T10:01:57.159Z,99062.22
2022-08-14T10:04:36.057Z,99066.09
2022-08-14T10:07:08.351Z,99060.41
2022-08-14T10:09:59.440Z,99057.41
2022-08-14T10:12:44.835Z,99053.66
2022-08-14T10:15:32.804Z,99054.09
2022-08-14T10:18:13.249Z,99058.34
2022-08-14T10:20:57.803Z,99059.00
2022-08-14T10:23:39.352Z,99058.00
2022-08-14T10:26:08.780Z,99060.53
2022-08-14T10:29:19.050Z,99061.00
2022-08-14T10:31:44.466Z,99069.28
2022-08-14T10:34:18.478Z,99069.47
2022-08-14T10:36:49.961Z,99075.97
2022-08-14T10:39:25.954Z,99070.97
2022-08-14T10:42:16.397Z,99074.84
2022-08-14T10:44:49.189Z,99075.06
2022-08-14T10:47:39.769Z,99077.22
2022-08-14T10:50:12.231Z,99070.50
2022-08-14T10:52:42.602Z,99074.56
2022-08-14T10:55:19.290Z,99072.47
2022-08-14T10:57:56.990Z,99073.22
2022-08-14T11:00:30.406Z,99071.31
2022-08-14T11:03:11.105Z,99072.06
2022-08-14T11:05:49.092Z,99065.09
2022-08-14T11:08:31.639Z,99067.38
2022-08-14T11:11:03.579Z,99070.53
2022-08-14T11:13:32.007Z,99061.41
2022-08-14T11:16:01.231Z,99060.88
2022-08-14T11:18:35.923Z,99056.59
2022-08-14T11:21:08.209Z,99058.28
2022-08-14T11:23:43.777Z,99053.91
2022-08-14T11:26:12.208Z,99057.50
2022-08-14T11:28:48.581Z,99055.28
2022-08-14T11:31:25.618Z,99060.03
2022-08-14T11:33:55.445Z,99050.06
2022-08-14T11:36:23.981Z,99067.69
2022-08-14T11:39:02.289Z,99070.63
2022-08-14T11:41:39.194Z,99061.50
2022-08-14T11:44:17.450Z,99057.94
2022-08-14T11:47:05.938Z,99060.97
2022-08-14T11:49:34.124Z,99058.88
2022-08-14T11:52:01.705Z,99056.72
2022-08-14T11:54:34.784Z,99052.78
2022-08-14T11:57:02.394Z,99047.53
2022-08-14T11:59:33.620Z,99046.66
2022-08-14T12:03:00.281Z,99056.31
2022-08-14T12:05:03.950Z,99054.78
2022-08-14T12:07:30.726Z,99050.50
2022-08-14T12:09:59.444Z,99064.38
2022-08-14T12:12:35.977Z,99061.31
2022-08-14T12:15:14.097Z,99065.53
2022-08-14T12:17:47.704Z,99073.66
2022-08-14T12:20:30.292Z,99071.94
2022-08-14T12:23:02.091Z,99073.16
2022-08-14T12:25:29.348Z,99073.88
2022-08-14T12:27:59.465Z,99068.09
2022-08-14T12:30:43.564Z,99068.09
2022-08-14T12:33:33.376Z,99069.88
2022-08-14T12:36:08.035Z,99062.22
2022-08-14T12:38:43.821Z,99058.84
2022-08-14T12:41:20.951Z,99054.72
2022-08-14T12:43:59.806Z,99044.19
2022-08-14T12:46:40.650Z,99044.16
2022-08-14T12:49:16.154Z,99039.28
2022-08-14T12:51:55.347Z,99040.59
2022-08-14T12:54:27.791Z,99035.72
2022-08-14T12:57:07.998Z,99040.50
2022-08-14T12:59:37.119Z,99038.06
2022-08-14T13:02:26.487Z,99031.00
2022-08-14T13:04:56.041Z,99022.53
2022-08-14T13:07:26.352Z,99031.84
2022-08-14T13:09:58.380Z,99024.91
2022-08-14T13:12:34.966Z,99022.06
2022-08-14T13:15:14.824Z,99032.91
2022-08-14T13:17:48.180Z,99019.53
2022-08-14T13:20:23.980Z,99021.97
2022-08-14T13:22:54.969Z,99015.28
2022-08-14T13:25:27.634Z,99012.94
2022-08-14T13:27:57.802Z,99003.59
2022-08-14T13:30:26.415Z,98990.81
2022-08-14T13:32:54.867Z,98988.19
2022-08-14T13:35:25.494Z,98991.69
2022-08-14T13:37:53.496Z,98989.41
2022-08-14T13:40:26.210Z,98990.69
2022-08-14T13:42:56.751Z,98981.16
2022-08-14T13:45:24.125Z,98993.97
2022-08-14T13:48:01.381Z,98983.47
2022-08-14T13:50:27.962Z,98984.41
2022-08-14T13:52:58.240Z,98982.66
2022-08-14T13:55:29.872Z,98989.31
2022-08-14T13:58:03.358Z,98990.16
2022-08-14T14:00:35.589Z,98992.84
2022-08-14T14:03:08.629Z,98988.22
2022-08-14T14:05:52.210Z,98986.72
2022-08-14T14:08:45.817Z,98980.84
2022-08-14T14:11:15.780Z,98988.72
2022-08-14T14:13:46.510Z,98990.13
2022-08-14T14:16:15.270Z,98986.84
2022-08-14T14:18:55.801Z,98988.59
2022-08-14T14:21:28.486Z,98990.41
2022-08-14T14:23:56.354Z,98980.94
2022-08-14T14:26:24.715Z,98974.75
2022-08-14T14:28:57.194Z,98980.16
2022-08-14T14:31:29.664Z,98979.06
2022-08-14T14:34:07.535Z,98979.59
2022-08-14T14:36:52.577Z,98976.25
2022-08-14T14:39:28.808Z,98983.22
2022-08-14T14:41:59.687Z,98976.59
2022-08-14T14:44:42.557Z,98968.75
2022-08-14T14:47:11.247Z,98983.56
2022-08-14T14:49:51.293Z,98979.03
2022-08-14T14:52:27.534Z,98975.34
2022-08-14T14:54:59.251Z,98973.16
2022-08-14T14:57:34.801Z,98971.69
2022-08-14T15:00:02.454Z,98968.03
2022-08-14T15:02:38.165Z,98976.69
2022-08-14T15:05:08.135Z,98975.31
2022-08-14T15:07:38.654Z,98981.59
2022-08-14T15:10:28.247Z,98984.28
2022-08-14T15:12:57.725Z,98985.13
2022-08-14T15:15:27.389Z,98987.19
2022-08-14T15:17:54.589Z,98990.72
2022-08-14T15:20:30.559Z,98990.88
2022-08-14T15:23:00.920Z,98988.94
2022-08-14T15:25:36.440Z,98996.38
2022-08-14T15:28:03.527Z,98984.53
2022-08-14T15:30:32.076Z,98990.00
2022-08-14T15:32:59.559Z,98990.94
2022-08-14T15:35:28.151Z,98983.38
2022-08-14T15:38:07.865Z,98984.25
2022-08-14T15:40:43.379Z,98979.50
2022-08-14T15:43:12.765Z,98986.78
2022-08-14T15:45:40.749Z,98989.28
2022-08-14T15:48:08.259Z,98991.31
2022-08-14T15:50:44.599Z,98985.03
2022-08-14T15:53:15.787Z,98990.25
2022-08-14T15:55:43.739Z,98992.16
2022-08-14T15:58:14.515Z,98993.41
2022-08-14T16:00:59.731Z,98988.00
2022-08-14T16:03:35.798Z,98994.78
2022-08-14T16:06:10.923Z,98997.09
2022-08-14T16:08:45.469Z,98998.56
2022-08-14T16:11:14.952Z,98996.41
2022-08-14T16:13:44.377Z,99007.34
2022-08-14T16:16:34.344Z,99007.94
2022-08-14T16:19:09.810Z,99007.59
2022-08-14T16:21:39.650Z,99011.44
2022-08-14T16:24:07.916Z,99010.13
2022-08-14T16:26:54.680Z,99012.19
2022-08-14T16:29:29.968Z,99009.97
2022-08-14T16:31:58.686Z,99013.81
2022-08-14T16:34:45.031Z,99011.59
2022-08-14T16:37:16.493Z,99023.63
2022-08-14T16:39:43.776Z,99021.34
2022-08-14T16:43:02.887Z,99023.63
2022-08-14T16:44:59.812Z,99027.78
2022-08-14T16:47:32.030Z,99019.34
2022-08-14T16:50:04.393Z,99031.13
2022-08-14T16:52:44.703Z,99028.94
2022-08-14T16:55:13.942Z,99027.44
2022-08-14T16:57:51.901Z,99024.31
2022-08-14T17:00:29.215Z,99022.88
2022-08-14T17:03:08.576Z,99024.09
2022-08-14T17:05:43.043Z,99028.97
2022-08-14T17:08:32.178Z,99026.69
2022-08-14T17:11:04.816Z,99037.59
2022-08-14T17:13:59.896Z,99030.25
2022-08-14T17:16:26.094Z,99026.38
2022-08-14T17:19:01.100Z,99038.03
2022-08-14T17:21:38.429Z,99041.16
2022-08-14T17:24:57.288Z,99046.94
2022-08-14T17:27:04.328Z,99051.94
2022-08-14T17:29:35.103Z,99048.13
2022-08-14T17:32:28.278Z,99048.56
2022-08-14T17:34:57.580Z,99045.53
2022-08-14T17:37:35.538Z,99041.91
2022-08-14T17:40:22.719Z,99037.47
2022-08-14T17:43:02.229Z,99048.44
2022-08-14T17:45:41.102Z,99049.09
2022-08-14T17:49:10.567Z,99045.25
2022-08-14T17:51:23.229Z,99053.91
2022-08-14T17:53:53.322Z,99046.66
2022-08-14T17:56:29.002Z,99042.63
2022-08-14T17:59:05.723Z,99044.84
2022-08-14T18:01:37.324Z,99040.78
2022-08-14T18:04:25.062Z,99041.22
2022-08-14T18:07:05.968Z,99048.31
2022-08-14T18:09:57.335Z,99047.75
2022-08-14T18:12:36.606Z,99054.16
2022-08-14T18:15:16.861Z,99042.25
2022-08-14T18:17:53.262Z,99044.41
2022-08-14T18:21:23.512Z,99047.06
2022-08-14T18:23:13.568Z,99035.25
2022-08-14T18:25:50.422Z,99044.06
2022-08-14T18:28:48.164Z,99043.34
2022-08-14T18:31:20.103Z,99046.94
2022-08-14T18:33:58.329Z,99042.03
2022-08-14T18:36:51.246Z,99040.38
2022-08-14T18:39:27.167Z,99051.09
2022-08-14T18:41:57.989Z,99035.63
2022-08-14T18:44:49.840Z,99040.88
2022-08-14T18:47:20.005Z,99035.81
2022-08-14T18:50:00.479Z,99042.88
2022-08-14T18:52:29.682Z,99042.09
2022-08-14T18:54:59.602Z,99030.97
2022-08-14T18:57:27.189Z,99032.03
2022-08-14T19:00:32.064Z,99028.66
2022-08-14T19:03:01.377Z,99021.88
2022-08-14T19:05:47.800Z,99025.56
2022-08-14T19:08:18.546Z,99019.78
2022-08-14T19:10:51.730Z,99011.25
2022-08-14T19:13:27.762Z,99020.88
2022-08-14T19:16:23.275Z,99014.16
2022-08-14T19:19:01.090Z,99017.84
2022-08-14T19:21:38.429Z,99017.97
2022-08-14T19:24:27.986Z,99020.72
2022-08-14T19:27:22.911Z,99022.63
2022-08-14T19:30:11.216Z,99017.59
2022-08-14T19:32:51.095Z,99020.34
2022-08-14T19:35:22.827Z,99022.25
2022-08-14T19:37:54.186Z,99026.72
2022-08-14T19:40:34.776Z,99024.94
2022-08-14T19:43:06.314Z,99025.00
2022-08-14T19:45:33.858Z,99016.47
2022-08-14T19:48:01.486Z,99014.81
2022-08-14T19:50:40.881Z,99016.63
2022-08-14T19:53:16.569Z,99012.41
2022-08-14T19:55:57.623Z,99017.75
2022-08-14T19:58:54.013Z,99023.13
2022-08-14T20:01:36.658Z,99019.00
2022-08-14T20:04:07.730Z,99031.19
2022-08-14T20:06:46.694Z,99027.00
2022-08-14T20:11:06.265Z,99036.56
2022-08-14T20:12:04.663Z,99041.81
2022-08-14T20:14:37.021Z,99038.41
2022-08-14T20:17:06.947Z,99035.13
2022-08-14T20:19:37.539Z,99038.53
2022-08-14T20:22:36.408Z,99037.81
2022-08-14T20:24:55.484Z,99036.09
2022-08-14T20:27:34.046Z,99045.59
2022-08-14T20:30:29.757Z,99047.28
2022-08-14T20:33:02.664Z,99050.91
2022-08-14T20:35:52.338Z,99043.19
2022-08-14T20:38:30.776Z,99053.69
2022-08-14T20:41:05.744Z,99046.00
2022-08-14T20:43:54.002Z,99046.88
2022-08-14T20:46:29.757Z,99046.13
2022-08-14T20:49:00.880Z,99037.59
2022-08-14T20:51:36.470Z,99042.97
2022-08-14T20:54:06.241Z,99045.63
2022-08-14T20:56:36.624Z,99031.06
2022-08-14T20:59:25.457Z,99031.25
2022-08-14T21:01:59.516Z,99035.63
2022-08-14T21:04:38.020Z,99033.06
2022-08-14T21:07:35.341Z,99034.09
2022-08-14T21:10:35.848Z,99038.59
2022-08-14T21:13:26.100Z,99037.88
2022-08-14T21:15:57.859Z,99038.00
2022-08-14T21:18:47.387Z,99029.38
2022-08-14T21:21:18.101Z,99030.31
2022-08-14T21:23:55.407Z,99033.88
2022-08-14T21:26:33.253Z,99034.00
2022-08-14T21:29:14.347Z,99035.09
2022-08-14T21:31:42.333Z,99035.22
2022-08-14T21:34:27.169Z,99030.00
2022-08-14T21:36:56.125Z,99037.88
2022-08-14T21:39:24.812Z,99032.88
2022-08-14T21:41:59.155Z,99031.19
2022-08-14T21:44:42.840Z,99032.03
2022-08-14T21:47:13.136Z,99028.56
2022-08-14T21:49:41.217Z,99022.53
2022-08-14T21:52:50.678Z,99029.59
2022-08-14T21:55:13.258Z,99019.38
2022-08-14T21:58:46.312Z,99021.06
2022-08-14T22:00:39.403Z,99021.22
2022-08-14T22:03:17.190Z,99020.47
2022-08-14T22:05:45.958Z,99019.63
2022-08-14T22:08:14.011Z,99018.91
2022-08-14T22:10:46.345Z,99018.06
2022-08-14T22:13:18.399Z,99028.63
2022-08-14T22:15:49.721Z,99022.69
2022-08-14T22:18:20.717Z,99017.72
2022-08-14T22:20:53.893Z,99017.81
2022-08-14T22:23:24.807Z,99020.44
2022-08-14T22:25:53.619Z,99019.69
2022-08-14T22:28:25.499Z,99030.22
2022-08-14T22:30:55.197Z,99022.50
2022-08-14T22:33:30.969Z,99020.09
2022-08-14T22:36:00.302Z,99019.22
2022-08-14T22:38:37.572Z,99024.47
2022-08-14T22:41:25.511Z,99019.31
2022-08-14T22:43:54.834Z,99017.63
2022-08-14T22:46:21.513Z,99007.41
2022-08-14T22:48:49.361Z,99011.66
2022-08-14T22:51:18.735Z,99010.81
2022-08-14T22:53:48.411Z,99016.06
2022-08-14T22:56:20.216Z,99014.44
2022-08-14T22:58:49.955Z,99018.03
2022-08-14T23:01:56.574Z,99012.88
2022-08-14T23:04:35.120Z,99008.63
2022-08-14T23:07:21.758Z,99006.97
2022-08-14T23:10:31.269Z,99008.66
2022-08-14T23:12:54.842Z,99002.69
2022-08-14T23:15:22.806Z,99004.41
2022-08-14T23:17:49.506Z,99002.81
2022-08-14T23:20:20.364Z,98997.72
2022-08-14T23:22:51.378Z,98995.06
2022-08-14T23:25:20.061Z,98993.41
2022-08-14T23:28:06.926Z,98999.53
2022-08-14T23:30:55.246Z,98990.94
2022-08-14T23:33:22.041Z,98999.63
2022-08-14T23:35:58.800Z,98996.25
2022-08-14T23:38:30.534Z,98996.25
2022-08-14T23:41:02.348Z,98989.34
2022-08-14T23:43:31.419Z,98988.63
2022-08-14T23:45:59.007Z,98991.13
2022-08-14T23:48:28.296Z,98986.03
2022-08-14T23:50:55.726Z,98988.63
2022-08-14T23:53:47.441Z,98992.94
2022-08-14T23:56:16.520Z,98981.72
2022-08-14T23:58:49.287Z,98980.06
